Time;durP1;ratioP1;P1;durP2;ratioP2;P2;SDS_P1;SDS_P2;PMS_P1;PMS_P2;Temp;Humidity;BMP_temperature;BMP_pressure;BME280_temperature;BME280_humidity;BME280_pressure;Samples;Min_cycle;Max_cycle;Signal;HPM_P1;HPM_P2
2023/12/14 00:00:41;;;;;;;2.57;1.40;;;4.50;99.90;;;;;;4984153;28;20351;-54
2023/12/14 00:03:09;;;;;;;2.10;1.90;;;4.50;99.90;;;;;;4994118;28;20220;-55
2023/12/14 00:05:36;;;;;;;2.50;1.03;;;4.50;99.90;;;;;;4988650;28;20188;-50
2023/12/14 00:08:03;;;;;;;4.27;1.50;;;4.50;99.90;;;;;;5000611;28;20298;-52
2023/12/14 00:10:30;;;;;;;4.40;1.50;;;4.50;99.90;;;;;;4985485;28;20399;-53
2023/12/14 00:12:57;;;;;;;3.60;1.40;;;4.50;99.90;;;;;;4974386;28;20266;-55
2023/12/14 00:15:23;;;;;;;2.60;2.03;;;4.50;99.90;;;;;;4982530;28;20603;-55
2023/12/14 00:17:49;;;;;;;2.13;1.37;;;4.60;99.90;;;;;;4986871;28;20304;-53
2023/12/14 00:20:18;;;;;;;4.77;1.77;;;4.50;99.90;;;;;;4988060;28;20412;-55
2023/12/14 00:22:44;;;;;;;4.63;1.83;;;4.60;99.90;;;;;;4997198;28;20910;-52
2023/12/14 00:25:11;;;;;;;4.47;1.50;;;4.60;99.90;;;;;;5004788;28;20247;-55
2023/12/14 00:27:39;;;;;;;5.10;1.77;;;4.60;99.90;;;;;;4968217;28;20966;-51
2023/12/14 00:30:07;;;;;;;5.70;1.37;;;4.60;99.90;;;;;;5000491;28;20200;-53
2023/12/14 00:32:34;;;;;;;2.90;1.37;;;4.60;99.90;;;;;;4967910;28;20723;-54
2023/12/14 00:35:01;;;;;;;1.27;0.97;;;4.60;99.90;;;;;;5004401;28;20629;-52
2023/12/14 00:37:29;;;;;;;2.27;1.30;;;4.60;99.90;;;;;;4987315;28;20275;-55
2023/12/14 00:39:56;;;;;;;7.40;1.20;;;4.60;99.90;;;;;;5000947;28;20601;-55
2023/12/14 00:42:23;;;;;;;2.33;1.30;;;4.60;99.90;;;;;;4979561;28;20271;-55
2023/12/14 00:44:49;;;;;;;2.87;1.17;;;4.60;99.90;;;;;;4993907;28;20208;-50
2023/12/14 00:47:16;;;;;;;1.60;1.10;;;4.60;99.90;;;;;;4985419;28;20310;-55
2023/12/14 00:49:43;;;;;;;3.07;1.07;;;4.60;99.90;;;;;;4987866;28;20204;-53
2023/12/14 00:52:10;;;;;;;2.10;1.20;;;4.60;99.90;;;;;;4984830;28;20730;-55
2023/12/14 00:54:38;;;;;;;5.60;1.20;;;4.60;99.90;;;;;;5000894;28;20177;-52
2023/12/14 00:57:05;;;;;;;2.47;1.23;;;4.60;99.90;;;;;;5001794;28;20196;-56
2023/12/14 00:59:32;;;;;;;4.83;1.47;;;4.60;99.90;;;;;;4965312;28;20271;-54
2023/12/14 01:01:59;;;;;;;1.97;1.37;;;4.60;99.90;;;;;;4994550;28;20224;-52
2023/12/14 01:04:25;;;;;;;1.93;1.10;;;4.60;99.90;;;;;;4987220;28;20250;-56
2023/12/14 01:06:52;;;;;;;1.77;1.33;;;4.70;99.90;;;;;;4989755;28;20656;-55
2023/12/14 01:09:19;;;;;;;5.40;1.03;;;4.60;99.90;;;;;;4995931;28;20204;-55
2023/12/14 01:11:47;;;;;;;2.47;1.00;;;4.70;99.90;;;;;;5002775;28;20235;-54
2023/12/14 01:14:14;;;;;;;5.67;1.20;;;4.70;99.90;;;;;;4980247;28;20614;-56
2023/12/14 01:16:41;;;;;;;2.33;1.47;;;4.70;99.90;;;;;;4996232;28;20236;-55
2023/12/14 01:19:07;;;;;;;1.90;1.10;;;4.70;99.90;;;;;;4983465;28;20286;-54
2023/12/14 01:21:34;;;;;;;5.67;1.67;;;4.70;99.90;;;;;;4983935;28;20438;-52
2023/12/14 01:24:02;;;;;;;1.30;1.20;;;4.70;99.90;;;;;;4997918;28;20201;-51
2023/12/14 01:26:29;;;;;;;3.57;1.57;;;4.70;99.90;;;;;;4999262;28;20905;-52
2023/12/14 01:28:58;;;;;;;3.03;1.53;;;4.70;99.90;;;;;;5004144;28;20221;-52
2023/12/14 01:31:25;;;;;;;2.37;1.40;;;4.70;99.90;;;;;;4972143;28;20876;-52
2023/12/14 01:33:53;;;;;;;3.77;1.50;;;4.70;99.90;;;;;;4988872;28;20217;-56
2023/12/14 01:36:23;;;;;;;4.87;1.43;;;4.70;99.90;;;;;;4990584;28;20279;-55
2023/12/14 01:38:50;;;;;;;4.03;1.50;;;4.70;99.90;;;;;;4992447;28;20270;-52
2023/12/14 01:41:17;;;;;;;3.43;1.33;;;4.70;99.90;;;;;;5000789;28;20620;-56
2023/12/14 01:43:44;;;;;;;2.40;1.40;;;4.70;99.90;;;;;;5003004;28;20334;-52
2023/12/14 01:46:14;;;;;;;3.97;1.63;;;4.70;99.90;;;;;;4966029;28;20204;-56
2023/12/14 01:48:41;;;;;;;2.10;1.10;;;4.70;99.90;;;;;;4991354;28;20914;-56
2023/12/14 01:51:08;;;;;;;2.20;1.27;;;4.70;99.90;;;;;;4987603;28;20209;-55
2023/12/14 01:53:35;;;;;;;5.67;1.73;;;4.70;99.90;;;;;;4988977;28;20199;-54
2023/12/14 01:56:02;;;;;;;1.90;1.17;;;4.70;99.90;;;;;;5003252;28;20204;-53
2023/12/14 01:58:29;;;;;;;4.20;1.70;;;4.70;99.90;;;;;;5000300;28;20274;-54
2023/12/14 02:01:04;;;;;;;2.50;1.30;;;4.70;99.90;;;;;;4976033;28;20285;-54
2023/12/14 02:03:32;;;;;;;1.57;1.17;;;4.70;99.90;;;;;;4989527;28;20227;-53
2023/12/14 02:06:00;;;;;;;5.83;1.23;;;4.70;99.90;;;;;;4983884;28;20217;-55
2023/12/14 02:08:28;;;;;;;2.80;1.33;;;4.70;99.90;;;;;;4987424;28;20221;-56
2023/12/14 02:10:55;;;;;;;3.23;1.63;;;4.70;99.90;;;;;;4995795;28;20703;-54
2023/12/14 02:13:22;;;;;;;3.07;1.43;;;4.70;99.90;;;;;;4999819;28;20235;-54
2023/12/14 02:15:49;;;;;;;2.60;1.30;;;4.70;99.90;;;;;;4972073;28;20691;-53
2023/12/14 02:18:16;;;;;;;2.47;1.50;;;4.70;99.90;;;;;;4991324;28;20278;-55
2023/12/14 02:20:44;;;;;;;2.67;1.67;;;4.70;99.90;;;;;;4985816;28;20266;-51
2023/12/14 02:23:13;;;;;;;1.80;1.40;;;4.70;99.90;;;;;;4986464;28;20270;-56
2023/12/14 02:25:40;;;;;;;5.37;1.57;;;4.70;99.90;;;;;;4994711;28;20803;-54
2023/12/14 02:28:06;;;;;;;4.90;1.47;;;4.70;99.90;;;;;;4998459;28;20284;-56
2023/12/14 02:30:33;;;;;;;4.20;1.70;;;4.70;99.90;;;;;;4965324;28;20275;-52
2023/12/14 02:33:00;;;;;;;4.07;1.70;;;4.70;99.90;;;;;;4995876;28;20260;-54
2023/12/14 02:35:27;;;;;;;6.20;2.10;;;4.70;99.90;;;;;;4977720;28;20909;-54
2023/12/14 02:37:54;;;;;;;1.40;1.23;;;4.70;99.90;;;;;;4987217;28;20298;-54
2023/12/14 02:40:22;;;;;;;5.83;1.67;;;4.70;99.90;;;;;;4980296;28;20197;-55
2023/12/14 02:42:49;;;;;;;3.77;1.50;;;4.70;99.90;;;;;;5002183;28;20635;-54
2023/12/14 02:45:15;;;;;;;1.87;1.30;;;4.70;99.90;;;;;;4978683;28;20239;-56
2023/12/14 02:47:42;;;;;;;3.63;1.77;;;4.70;99.90;;;;;;4992068;28;20279;-54
2023/12/14 02:50:10;;;;;;;3.97;1.70;;;4.70;99.90;;;;;;4989961;28;20644;-54
2023/12/14 02:52:36;;;;;;;4.93;2.20;;;4.70;99.90;;;;;;5000225;28;20203;-51
2023/12/14 02:55:03;;;;;;;4.67;1.70;;;4.70;99.90;;;;;;4983116;28;20628;-54
2023/12/14 02:57:31;;;;;;;2.37;1.23;;;4.70;99.90;;;;;;4999658;28;20216;-56
2023/12/14 02:59:58;;;;;;;2.77;1.47;;;4.70;99.90;;;;;;5001399;28;20839;-51
2023/12/14 03:02:25;;;;;;;3.50;1.80;;;4.70;99.90;;;;;;4969515;28;20216;-55
2023/12/14 03:04:52;;;;;;;2.53;0.97;;;4.70;99.90;;;;;;5002434;28;20284;-52
2023/12/14 03:07:19;;;;;;;2.33;1.77;;;4.70;99.90;;;;;;4979904;28;20278;-54
2023/12/14 03:09:46;;;;;;;3.10;1.30;;;4.70;99.90;;;;;;4980521;28;20292;-51
2023/12/14 03:12:13;;;;;;;2.60;1.57;;;4.70;99.90;;;;;;5000595;28;20211;-53
2023/12/14 03:14:41;;;;;;;5.93;1.37;;;4.70;99.90;;;;;;5001077;28;20196;-49
2023/12/14 03:17:12;;;;;;;3.60;1.70;;;4.70;99.90;;;;;;4968442;28;20216;-55
2023/12/14 03:19:40;;;;;;;2.13;1.27;;;4.70;99.90;;;;;;5000149;28;20271;-53
2023/12/14 03:22:07;;;;;;;4.23;1.70;;;4.70;99.90;;;;;;4988643;28;20288;-50
2023/12/14 03:24:36;;;;;;;6.17;1.67;;;4.70;99.90;;;;;;4991404;28;20196;-54
2023/12/14 03:27:03;;;;;;;2.33;1.67;;;4.70;99.90;;;;;;4991700;28;20212;-54
2023/12/14 03:29:30;;;;;;;2.57;1.60;;;4.70;99.90;;;;;;4996558;28;20196;-55
2023/12/14 03:31:59;;;;;;;2.93;1.70;;;4.70;99.90;;;;;;4972684;28;20240;-54
2023/12/14 03:34:26;;;;;;;2.63;1.23;;;4.70;99.90;;;;;;4997978;28;20251;-51
2023/12/14 03:36:52;;;;;;;5.87;2.00;;;4.70;99.90;;;;;;4991834;28;20200;-54
2023/12/14 03:39:19;;;;;;;3.40;1.90;;;4.70;99.90;;;;;;4992241;28;20224;-55
2023/12/14 03:41:46;;;;;;;1.87;1.67;;;4.70;99.90;;;;;;4992829;28;20310;-53
2023/12/14 03:44:13;;;;;;;2.53;1.30;;;4.70;99.90;;;;;;5000965;28;20209;-54
2023/12/14 03:46:40;;;;;;;4.00;1.33;;;4.70;99.90;;;;;;4976481;28;21145;-49
2023/12/14 03:49:08;;;;;;;4.40;1.80;;;4.70;99.90;;;;;;5001535;28;20279;-53
2023/12/14 03:51:35;;;;;;;3.77;2.17;;;4.70;99.90;;;;;;5003482;28;20189;-53
2023/12/14 03:54:02;;;;;;;4.13;1.90;;;4.70;99.90;;;;;;4993434;28;20229;-52
2023/12/14 03:56:29;;;;;;;8.90;2.03;;;4.70;99.90;;;;;;4993091;28;20196;-53
2023/12/14 03:58:57;;;;;;;3.57;1.80;;;4.70;99.90;;;;;;4992759;28;20290;-52
2023/12/14 04:01:23;;;;;;;4.60;1.50;;;4.70;99.90;;;;;;5001972;28;20200;-50
2023/12/14 04:03:50;;;;;;;3.77;2.00;;;4.70;99.90;;;;;;4973647;28;20271;-51
2023/12/14 04:06:18;;;;;;;2.87;1.80;;;4.70;99.90;;;;;;5000892;28;20252;-54
2023/12/14 04:08:45;;;;;;;4.23;1.80;;;4.70;99.90;;;;;;4995162;28;20224;-52
2023/12/14 04:11:12;;;;;;;3.87;1.70;;;4.60;99.90;;;;;;4998012;28;20757;-55
2023/12/14 04:13:39;;;;;;;2.83;1.77;;;4.60;99.90;;;;;;4990004;28;20321;-51
2023/12/14 04:16:07;;;;;;;2.70;1.80;;;4.60;99.90;;;;;;5000965;28;20268;-55
2023/12/14 04:18:34;;;;;;;3.60;2.33;;;4.60;99.90;;;;;;4965993;28;21019;-53
2023/12/14 04:21:01;;;;;;;2.30;2.00;;;4.60;99.90;;;;;;5001910;28;20354;-55
2023/12/14 04:23:30;;;;;;;2.07;1.63;;;4.60;99.90;;;;;;4997488;28;20236;-52
2023/12/14 04:25:57;;;;;;;4.50;2.33;;;4.60;99.90;;;;;;4992745;28;20677;-51
2023/12/14 04:28:24;;;;;;;7.10;2.10;;;4.60;99.90;;;;;;4979167;28;20263;-54
2023/12/14 04:30:51;;;;;;;3.43;2.33;;;4.60;99.90;;;;;;4988691;28;20870;-54
2023/12/14 04:33:17;;;;;;;3.23;2.00;;;4.60;99.90;;;;;;4974543;28;20208;-54
2023/12/14 04:35:44;;;;;;;5.23;2.50;;;4.60;99.90;;;;;;4989687;28;20221;-50
2023/12/14 04:38:11;;;;;;;4.83;2.40;;;4.60;99.90;;;;;;4989467;28;20274;-54
2023/12/14 04:40:39;;;;;;;3.20;2.40;;;4.50;99.90;;;;;;4993212;28;20660;-51
2023/12/14 04:43:06;;;;;;;4.17;2.67;;;4.50;99.90;;;;;;4992852;28;20274;-52
2023/12/14 04:45:33;;;;;;;4.17;2.60;;;4.50;99.90;;;;;;4994006;28;20293;-52
2023/12/14 04:48:00;;;;;;;4.63;2.27;;;4.50;99.90;;;;;;4967671;28;20220;-52
2023/12/14 04:50:27;;;;;;;2.90;2.37;;;4.50;99.90;;;;;;5003391;28;20200;-53
2023/12/14 04:52:54;;;;;;;4.93;2.50;;;4.40;99.90;;;;;;4998142;28;20196;-54
2023/12/14 04:55:21;;;;;;;3.57;2.60;;;4.40;99.90;;;;;;4990924;28;20216;-53
2023/12/14 04:57:49;;;;;;;4.30;2.57;;;4.40;99.90;;;;;;4985818;28;20691;-53
2023/12/14 05:00:17;;;;;;;4.10;2.70;;;4.40;99.90;;;;;;4986196;28;20196;-54
2023/12/14 05:02:48;;;;;;;4.67;2.37;;;4.40;99.90;;;;;;4991878;28;20647;-55
2023/12/14 05:05:15;;;;;;;5.50;2.60;;;4.30;99.90;;;;;;4965884;28;20204;-52
2023/12/14 05:07:42;;;;;;;5.23;3.10;;;4.40;99.90;;;;;;4994262;28;20686;-54
2023/12/14 05:10:10;;;;;;;4.63;2.90;;;4.40;99.90;;;;;;4990571;28;20592;-53
2023/12/14 05:12:37;;;;;;;6.30;3.13;;;4.30;99.90;;;;;;4994056;28;20211;-52
2023/12/14 05:15:06;;;;;;;5.77;3.57;;;4.30;99.90;;;;;;4980222;28;20269;-54
2023/12/14 05:17:34;;;;;;;5.70;3.87;;;4.30;99.90;;;;;;5002914;28;20212;-50
2023/12/14 05:20:02;;;;;;;6.37;3.40;;;4.30;99.90;;;;;;4969310;28;20294;-53
2023/12/14 05:22:28;;;;;;;6.00;3.73;;;4.30;99.90;;;;;;4996085;28;20220;-53
2023/12/14 05:24:55;;;;;;;6.93;3.33;;;4.30;99.90;;;;;;4998598;28;20267;-53
2023/12/14 05:27:22;;;;;;;5.73;3.67;;;4.20;99.90;;;;;;4993199;28;20275;-52
2023/12/14 05:29:49;;;;;;;6.20;3.47;;;4.20;99.90;;;;;;4985581;28;20208;-54
2023/12/14 05:32:17;;;;;;;4.93;3.90;;;4.20;99.90;;;;;;4993592;28;20193;-54
2023/12/14 05:34:44;;;;;;;5.00;3.53;;;4.20;99.90;;;;;;4993739;28;20287;-55
2023/12/14 05:37:11;;;;;;;7.37;4.07;;;4.20;99.90;;;;;;4967942;28;20314;-54
2023/12/14 05:39:38;;;;;;;7.87;4.33;;;4.10;99.90;;;;;;5002996;28;20193;-52
2023/12/14 05:42:05;;;;;;;5.77;3.97;;;4.10;99.90;;;;;;4979619;28;20228;-52
2023/12/14 05:44:32;;;;;;;5.77;3.67;;;4.10;99.90;;;;;;5000940;28;20291;-52
2023/12/14 05:46:58;;;;;;;6.33;3.53;;;4.10;99.90;;;;;;4979927;28;21015;-54
2023/12/14 05:49:26;;;;;;;7.90;4.00;;;4.10;99.90;;;;;;4999636;28;20197;-51
2023/12/14 05:51:54;;;;;;;9.50;4.43;;;4.10;99.90;;;;;;4970624;28;20573;-55
2023/12/14 05:54:21;;;;;;;5.20;3.70;;;4.10;99.90;;;;;;4993094;28;20221;-54
2023/12/14 05:56:48;;;;;;;7.10;3.87;;;4.10;99.90;;;;;;4998182;28;20196;-54
2023/12/14 05:59:15;;;;;;;5.83;3.93;;;4.10;99.90;;;;;;4986922;28;20204;-53
2023/12/14 06:01:42;;;;;;;5.67;4.27;;;4.10;99.90;;;;;;4975353;28;20213;-54
2023/12/14 06:04:09;;;;;;;5.13;4.00;;;4.10;99.90;;;;;;4993089;28;20248;-52
2023/12/14 06:06:39;;;;;;;6.60;4.20;;;4.10;99.90;;;;;;5001008;28;20188;-55
2023/12/14 06:09:07;;;;;;;11.83;4.33;;;4.10;99.90;;;;;;4971955;28;20217;-53
2023/12/14 06:11:34;;;;;;;8.30;4.40;;;4.10;99.90;;;;;;5002146;28;20227;-52
2023/12/14 06:14:00;;;;;;;6.23;4.00;;;4.10;99.90;;;;;;4985683;28;20969;-54
2023/12/14 06:16:27;;;;;;;7.50;4.30;;;4.10;99.90;;;;;;4990725;28;20301;-52
2023/12/14 06:18:54;;;;;;;6.30;3.93;;;4.10;99.90;;;;;;4984300;28;20232;-53
2023/12/14 06:21:21;;;;;;;7.33;4.23;;;4.10;99.90;;;;;;5000961;28;20197;-51
2023/12/14 06:23:49;;;;;;;5.93;4.23;;;4.10;99.90;;;;;;4958543;28;20227;-53
2023/12/14 06:26:16;;;;;;;7.90;4.10;;;4.10;99.90;;;;;;4995616;28;20209;-55
2023/12/14 06:28:42;;;;;;;7.20;4.50;;;4.10;99.90;;;;;;4994319;28;20295;-53
2023/12/14 06:31:13;;;;;;;9.23;4.23;;;4.10;99.90;;;;;;4992673;28;20259;-51
2023/12/14 06:33:40;;;;;;;8.20;4.97;;;4.10;99.90;;;;;;4975793;28;20551;-55
2023/12/14 06:36:08;;;;;;;9.77;4.07;;;4.10;99.90;;;;;;4996467;28;20188;-54
2023/12/14 06:38:35;;;;;;;10.27;4.37;;;4.10;99.90;;;;;;4971884;28;20297;-54
2023/12/14 06:41:04;;;;;;;6.67;4.37;;;4.10;99.90;;;;;;4987766;28;20197;-53
2023/12/14 06:43:30;;;;;;;6.83;4.50;;;4.10;99.90;;;;;;5000835;28;20314;-54
2023/12/14 06:45:57;;;;;;;7.10;4.63;;;4.10;99.90;;;;;;4985685;28;20254;-54
2023/12/14 06:48:24;;;;;;;7.03;4.80;;;4.10;99.90;;;;;;4982181;28;20232;-55
2023/12/14 06:50:51;;;;;;;9.90;5.80;;;4.20;99.90;;;;;;4998118;28;20668;-53
2023/12/14 06:53:17;;;;;;;7.73;4.83;;;4.10;99.90;;;;;;4997916;28;20341;-56
2023/12/14 06:55:44;;;;;;;11.83;5.80;;;4.10;99.90;;;;;;4971555;28;20201;-53
2023/12/14 06:58:12;;;;;;;6.43;4.67;;;4.10;99.90;;;;;;4993899;28;20945;-54
2023/12/14 07:00:39;;;;;;;7.03;5.20;;;4.10;99.90;;;;;;4989229;28;20224;-53
2023/12/14 07:03:06;;;;;;;7.33;4.70;;;4.10;99.90;;;;;;4989489;28;20907;-54
2023/12/14 07:05:33;;;;;;;6.57;4.57;;;4.10;99.90;;;;;;4991562;28;20282;-54
2023/12/14 07:07:59;;;;;;;7.27;4.40;;;4.20;99.90;;;;;;4995948;28;20952;-51
2023/12/14 07:10:26;;;;;;;11.70;5.33;;;4.10;99.90;;;;;;4974623;28;20259;-49
2023/12/14 07:12:53;;;;;;;7.67;5.20;;;4.10;99.90;;;;;;4985907;28;20286;-53
2023/12/14 07:15:21;;;;;;;4.83;4.33;;;4.10;99.90;;;;;;4997176;28;20246;-54
2023/12/14 07:17:48;;;;;;;9.80;4.80;;;4.10;99.90;;;;;;4978289;28;20229;-54
2023/12/14 07:20:15;;;;;;;10.53;5.13;;;4.10;99.90;;;;;;4986670;28;20212;-55
2023/12/14 07:22:42;;;;;;;8.20;5.10;;;4.10;99.90;;;;;;4997184;28;20262;-53
2023/12/14 07:25:09;;;;;;;8.57;5.37;;;4.10;99.90;;;;;;4965827;28;20251;-54
2023/12/14 07:27:36;;;;;;;8.63;5.33;;;4.10;99.90;;;;;;4984553;28;20838;-52
2023/12/14 07:30:03;;;;;;;6.97;5.00;;;4.10;99.90;;;;;;5000733;28;20201;-55
2023/12/14 07:32:31;;;;;;;9.13;4.70;;;4.10;99.90;;;;;;4984449;28;20767;-52
2023/12/14 07:34:58;;;;;;;8.70;4.83;;;4.00;99.90;;;;;;4982211;28;20205;-55
2023/12/14 07:37:25;;;;;;;8.33;5.23;;;4.10;99.90;;;;;;4997317;28;20822;-49
2023/12/14 07:39:52;;;;;;;7.53;4.80;;;4.00;99.90;;;;;;5000164;28;20288;-53
2023/12/14 07:42:20;;;;;;;11.57;5.40;;;4.10;99.90;;;;;;4961312;28;20294;-55
2023/12/14 07:44:47;;;;;;;9.13;5.97;;;4.00;99.90;;;;;;4990800;28;20296;-50
2023/12/14 07:47:14;;;;;;;7.17;4.77;;;4.10;99.90;;;;;;4984376;28;20666;-55
2023/12/14 07:49:42;;;;;;;9.10;5.90;;;4.00;99.90;;;;;;4987081;28;20213;-54
2023/12/14 07:52:09;;;;;;;9.97;5.70;;;4.10;99.90;;;;;;4994231;28;20247;-52
2023/12/14 07:54:36;;;;;;;10.50;4.90;;;4.10;99.90;;;;;;4997467;28;20853;-54
2023/12/14 07:57:03;;;;;;;10.17;5.37;;;4.00;99.90;;;;;;4968726;28;20216;-53
2023/12/14 07:59:30;;;;;;;7.50;4.97;;;4.10;99.90;;;;;;4982848;28;20221;-51
2023/12/14 08:01:57;;;;;;;6.20;4.73;;;4.00;99.90;;;;;;5001000;28;20204;-51
2023/12/14 08:04:24;;;;;;;7.73;4.97;;;4.00;99.90;;;;;;4984531;28;20857;-50
2023/12/14 08:06:52;;;;;;;9.27;4.50;;;4.10;99.90;;;;;;4982139;28;20252;-51
2023/12/14 08:09:19;;;;;;;6.70;4.07;;;4.10;99.90;;;;;;4996657;28;20267;-53
2023/12/14 08:11:47;;;;;;;5.77;4.20;;;4.10;99.90;;;;;;4960380;28;20762;-53
2023/12/14 08:14:13;;;;;;;5.87;4.13;;;4.10;99.90;;;;;;4996871;28;20200;-52
2023/12/14 08:16:40;;;;;;;6.87;4.53;;;4.10;99.90;;;;;;4990862;28;20211;-54
2023/12/14 08:19:07;;;;;;;6.00;4.20;;;4.10;99.90;;;;;;4987690;28;20275;-52
2023/12/14 08:21:34;;;;;;;8.40;4.67;;;4.10;99.90;;;;;;4990495;28;20639;-54
2023/12/14 08:24:02;;;;;;;7.87;4.07;;;4.10;99.90;;;;;;4996359;28;20193;-55
2023/12/14 08:26:29;;;;;;;5.53;3.80;;;4.10;99.90;;;;;;5005119;28;20197;-53
2023/12/14 08:28:55;;;;;;;7.80;3.73;;;4.10;99.90;;;;;;4965661;28;20273;-55
2023/12/14 08:31:22;;;;;;;4.67;3.87;;;4.10;99.90;;;;;;4994507;28;20205;-54
2023/12/14 08:33:49;;;;;;;7.50;4.37;;;4.10;99.90;;;;;;4988202;28;20201;-53
2023/12/14 08:36:16;;;;;;;5.37;4.10;;;4.10;99.90;;;;;;4989236;28;20197;-53
2023/12/14 08:38:43;;;;;;;4.27;3.80;;;4.10;99.90;;;;;;4992050;28;20279;-54
2023/12/14 08:41:14;;;;;;;7.93;4.10;;;4.10;99.90;;;;;;4998742;28;20258;-53
2023/12/14 08:43:42;;;;;;;5.90;4.13;;;4.10;99.90;;;;;;4974517;28;20288;-54
2023/12/14 08:46:09;;;;;;;8.30;4.50;;;4.10;99.90;;;;;;5000615;28;20216;-52
2023/12/14 08:48:37;;;;;;;10.03;4.53;;;4.20;99.90;;;;;;4993493;28;20240;-50
2023/12/14 08:51:05;;;;;;;9.60;5.00;;;4.10;99.90;;;;;;4990760;28;20212;-53
2023/12/14 08:53:32;;;;;;;8.87;5.87;;;4.10;99.90;;;;;;4993495;28;20208;-52
2023/12/14 08:55:58;;;;;;;15.20;7.37;;;4.10;99.90;;;;;;4997170;28;20205;-54
2023/12/14 08:58:27;;;;;;;7.80;5.77;;;4.10;99.90;;;;;;4974671;28;20733;-53
2023/12/14 09:00:54;;;;;;;11.33;6.10;;;4.10;99.90;;;;;;4995093;28;20916;-55
2023/12/14 09:03:20;;;;;;;16.43;7.10;;;4.10;99.90;;;;;;4994196;28;20324;-54
2023/12/14 09:05:48;;;;;;;7.23;4.73;;;4.10;99.90;;;;;;4988869;28;20213;-55
2023/12/14 09:08:14;;;;;;;8.97;5.50;;;4.10;99.90;;;;;;5000529;28;20224;-55
2023/12/14 09:10:41;;;;;;;9.77;5.30;;;4.10;99.90;;;;;;4991189;28;20205;-54
2023/12/14 09:13:08;;;;;;;14.03;4.93;;;4.10;99.90;;;;;;4973104;28;20238;-52
2023/12/14 09:15:36;;;;;;;6.27;4.73;;;4.10;99.90;;;;;;5002050;28;20624;-54
2023/12/14 09:18:03;;;;;;;8.57;4.83;;;4.10;99.90;;;;;;4999437;28;20224;-51
2023/12/14 09:20:31;;;;;;;8.87;4.27;;;4.10;99.90;;;;;;4979329;28;20224;-53
2023/12/14 09:22:57;;;;;;;5.00;3.83;;;4.10;99.90;;;;;;4988435;28;20186;-55
2023/12/14 09:25:24;;;;;;;7.00;4.70;;;4.10;99.90;;;;;;4994071;28;20627;-51
2023/12/14 09:27:51;;;;;;;9.97;5.80;;;4.10;99.90;;;;;;4997178;28;20231;-53
2023/12/14 09:30:18;;;;;;;8.80;4.80;;;4.10;99.90;;;;;;4971878;28;20209;-52
2023/12/14 09:32:46;;;;;;;10.17;5.87;;;4.10;99.90;;;;;;4999481;28;20267;-54
2023/12/14 09:35:13;;;;;;;17.90;7.40;;;4.10;99.90;;;;;;4994702;28;20254;-50
2023/12/14 09:37:41;;;;;;;8.40;4.63;;;4.10;99.90;;;;;;4990520;28;20239;-55
2023/12/14 09:40:09;;;;;;;13.30;6.07;;;4.20;99.90;;;;;;4989146;28;20968;-51
2023/12/14 09:42:39;;;;;;;14.30;7.37;;;4.20;99.90;;;;;;5000216;28;20197;-53
2023/12/14 09:45:08;;;;;;;11.80;5.57;;;4.20;99.90;;;;;;4972264;28;20687;-53
2023/12/14 09:47:35;;;;;;;8.27;4.33;;;4.20;99.90;;;;;;5001401;28;20226;-53
2023/12/14 09:50:04;;;;;;;5.83;3.90;;;4.30;99.90;;;;;;4991474;28;20267;-54
2023/12/14 09:52:31;;;;;;;6.27;4.33;;;4.30;99.90;;;;;;4987713;28;20216;-51
2023/12/14 09:54:58;;;;;;;6.67;4.20;;;4.30;99.90;;;;;;4984365;28;20205;-51
2023/12/14 09:57:25;;;;;;;6.30;3.97;;;4.30;99.90;;;;;;4997878;28;20232;-53
2023/12/14 09:59:53;;;;;;;7.90;4.50;;;4.40;99.90;;;;;;4995425;28;20334;-53
2023/12/14 10:02:20;;;;;;;7.70;4.73;;;4.30;99.90;;;;;;4959279;28;20205;-52
2023/12/14 10:04:47;;;;;;;5.70;4.23;;;4.30;99.90;;;;;;4992846;28;20264;-53
2023/12/14 10:07:16;;;;;;;9.90;5.87;;;4.30;99.90;;;;;;4991042;28;20221;-55
2023/12/14 10:09:43;;;;;;;7.90;4.73;;;4.40;99.90;;;;;;4991609;28;20204;-52
2023/12/14 10:12:11;;;;;;;6.67;3.83;;;4.30;99.90;;;;;;4982329;28;20304;-52
2023/12/14 10:14:38;;;;;;;9.57;4.60;;;4.40;99.90;;;;;;4996480;28;20919;-54
2023/12/14 10:17:17;;;;;;;7.27;4.07;;;4.40;99.90;;;;;;4972938;28;20216;-54
2023/12/14 10:19:44;;;;;;;5.30;3.63;;;4.40;99.90;;;;;;5000231;28;20251;-51
2023/12/14 10:22:11;;;;;;;7.83;4.57;;;4.40;99.90;;;;;;4991506;28;20204;-50
2023/12/14 10:24:40;;;;;;;20.27;9.80;;;4.40;99.90;;;;;;4976493;28;20197;-54
2023/12/14 10:27:08;;;;;;;6.57;4.63;;;4.40;99.90;;;;;;4988123;28;20721;-50
2023/12/14 10:29:35;;;;;;;5.13;4.63;;;4.40;99.90;;;;;;4997485;28;20200;-52
2023/12/14 10:32:06;;;;;;;8.97;4.67;;;4.40;99.90;;;;;;4999607;28;20196;-51
2023/12/14 10:34:33;;;;;;;9.70;5.03;;;4.40;99.90;;;;;;4969371;28;20209;-53
2023/12/14 10:37:01;;;;;;;12.23;5.47;;;4.40;99.90;;;;;;4990465;28;20273;-52
2023/12/14 10:39:30;;;;;;;4.90;4.37;;;4.40;99.90;;;;;;4978536;28;20557;-55
2023/12/14 10:41:59;;;;;;;10.20;5.30;;;4.40;99.90;;;;;;4999978;28;20259;-52
2023/12/14 10:44:28;;;;;;;9.97;5.33;;;4.40;99.90;;;;;;4986355;28;20196;-53
2023/12/14 10:46:58;;;;;;;7.03;4.70;;;4.40;99.90;;;;;;4998434;28;20204;-53
2023/12/14 10:49:26;;;;;;;8.23;4.07;;;4.50;99.90;;;;;;4970490;28;20209;-53
2023/12/14 10:51:55;;;;;;;5.33;4.67;;;4.50;99.90;;;;;;4999962;28;20228;-51
2023/12/14 10:54:24;;;;;;;7.60;4.73;;;4.50;99.90;;;;;;4974618;28;20209;-52
2023/12/14 10:56:55;;;;;;;7.53;5.17;;;4.50;99.90;;;;;;4994594;28;20197;-51
2023/12/14 10:59:24;;;;;;;6.47;4.37;;;4.50;99.90;;;;;;4988104;28;20293;-54
2023/12/14 11:01:54;;;;;;;5.67;4.00;;;4.60;99.90;;;;;;4996171;28;20287;-55
2023/12/14 11:04:22;;;;;;;7.30;4.77;;;4.60;99.90;;;;;;4970003;28;20215;-53
2023/12/14 11:06:49;;;;;;;7.63;4.40;;;4.60;99.90;;;;;;4999606;28;20348;-55
2023/12/14 11:09:19;;;;;;;5.17;4.30;;;4.60;99.90;;;;;;4983689;28;20248;-53
2023/12/14 11:11:57;;;;;;;6.73;4.50;;;4.60;99.90;;;;;;5000190;28;20860;-53
2023/12/14 11:14:26;;;;;;;4.70;4.30;;;4.60;99.90;;;;;;4988321;28;20586;-55
2023/12/14 11:16:56;;;;;;;9.93;4.73;;;4.60;99.90;;;;;;4998786;28;20575;-54
2023/12/14 11:19:28;;;;;;;7.33;4.47;;;4.60;99.90;;;;;;4980211;28;20192;-54
2023/12/14 11:22:14;;;;;;;7.63;4.60;;;4.60;99.90;;;;;;4999059;28;20211;-51
2023/12/14 11:24:44;;;;;;;7.03;3.97;;;4.60;99.90;;;;;;4980001;28;20209;-54
2023/12/14 11:27:12;;;;;;;8.40;4.47;;;4.60;99.90;;;;;;4989211;28;20238;-54
2023/12/14 11:29:41;;;;;;;5.57;4.47;;;4.60;99.90;;;;;;4983897;28;20216;-53
2023/12/14 11:32:09;;;;;;;8.20;4.60;;;4.60;99.90;;;;;;4995957;28;20619;-54
2023/12/14 11:34:36;;;;;;;6.07;4.23;;;4.60;99.90;;;;;;4998824;28;20184;-55
2023/12/14 11:37:03;;;;;;;9.33;4.43;;;4.70;99.90;;;;;;4965091;28;20213;-55
2023/12/14 11:39:31;;;;;;;6.10;4.37;;;4.70;99.90;;;;;;4988029;28;20197;-54
2023/12/14 11:42:02;;;;;;;5.00;4.50;;;4.70;99.90;;;;;;4979100;28;20232;-52
2023/12/14 11:44:30;;;;;;;5.70;4.30;;;4.60;99.90;;;;;;4995410;28;20816;-53
2023/12/14 11:46:58;;;;;;;6.53;4.23;;;4.70;99.90;;;;;;4989421;28;20217;-52
2023/12/14 11:49:26;;;;;;;5.27;3.90;;;4.60;99.90;;;;;;4990605;28;20209;-55
2023/12/14 11:51:54;;;;;;;6.83;4.30;;;4.60;99.90;;;;;;4972356;28;20656;-53
2023/12/14 11:54:21;;;;;;;8.23;5.37;;;4.60;99.90;;;;;;5000201;28;20197;-57
2023/12/14 11:56:48;;;;;;;8.07;4.80;;;4.60;99.90;;;;;;4976496;28;20209;-56
2023/12/14 11:59:17;;;;;;;6.27;4.20;;;4.60;99.90;;;;;;5000667;28;20227;-54
2023/12/14 12:01:55;;;;;;;5.03;4.27;;;4.60;99.90;;;;;;4985876;28;20201;-51
2023/12/14 12:04:23;;;;;;;6.67;4.70;;;4.60;99.90;;;;;;5000968;28;20215;-55
2023/12/14 12:06:50;;;;;;;5.87;4.30;;;4.60;99.90;;;;;;4987893;28;20657;-53
2023/12/14 12:09:33;;;;;;;9.50;4.47;;;4.70;99.90;;;;;;4995714;28;20216;-54
2023/12/14 12:12:00;;;;;;;7.63;4.67;;;4.60;99.90;;;;;;4989946;28;20228;-53
2023/12/14 12:14:28;;;;;;;5.23;4.60;;;4.60;99.90;;;;;;4993556;28;20263;-53
2023/12/14 12:16:55;;;;;;;8.47;5.10;;;4.50;99.90;;;;;;4994827;28;20271;-53
2023/12/14 12:19:23;;;;;;;8.00;4.83;;;4.50;99.90;;;;;;5001988;28;20607;-54
2023/12/14 12:21:50;;;;;;;6.50;4.60;;;4.50;99.90;;;;;;5004005;28;20205;-53
2023/12/14 12:24:17;;;;;;;7.07;4.57;;;4.50;99.90;;;;;;4974888;28;20205;-55
2023/12/14 12:26:43;;;;;;;7.63;4.30;;;4.50;99.90;;;;;;4995603;28;20248;-55
2023/12/14 12:29:10;;;;;;;6.37;5.00;;;4.50;99.90;;;;;;4979192;28;20337;-54
2023/12/14 12:31:37;;;;;;;7.07;4.77;;;4.50;99.90;;;;;;4969952;28;20208;-56
2023/12/14 12:34:04;;;;;;;7.30;4.87;;;4.50;99.90;;;;;;5005237;28;20196;-55
2023/12/14 12:36:32;;;;;;;9.57;5.17;;;4.50;99.90;;;;;;4993063;28;20205;-55
2023/12/14 12:38:59;;;;;;;8.50;5.23;;;4.50;99.90;;;;;;4965287;28;20908;-54
2023/12/14 12:41:26;;;;;;;7.53;4.97;;;4.60;99.90;;;;;;5004374;28;20548;-55
2023/12/14 12:43:53;;;;;;;8.47;5.03;;;4.50;99.90;;;;;;4984261;28;20347;-56
2023/12/14 12:46:19;;;;;;;5.57;4.10;;;4.50;99.90;;;;;;4996544;28;20217;-57
2023/12/14 12:48:47;;;;;;;7.97;5.03;;;4.50;99.90;;;;;;4990950;28;20734;-55
2023/12/14 12:51:13;;;;;;;8.20;4.70;;;4.50;99.90;;;;;;4997544;28;20291;-56
2023/12/14 12:53:42;;;;;;;9.23;4.83;;;4.60;99.90;;;;;;4975360;28;20236;-55
2023/12/14 12:56:09;;;;;;;8.27;5.40;;;4.60;99.90;;;;;;5002975;28;20975;-56